Fairview, Pennsylvania
Current Conditions -  °F | °C
As of 6:51 PM on Wednesday 22 Oct 2014 (Local Time) from KERI Reporting Station
Broken Clouds Broken Clouds  
Wind Chill: 47°   Ceiling: 5000
Heat Index: 47°   Visibility: 10mi
Dew Point: 40°   Wind: 3mph
Humidity: 77%   Direction: 50°NE
Pressure: 30.22"   Gusts: NA
Location:  42.03°N, 80.25°W
Report Text: KERI 222251Z 05003KT 10SM BKN050 08/04 A3022 RMK AO2 SLP238 T00830044
Loading
Personal Weather Stations






























Interactive Weather Map
Tropical Storm Tracking
New forecast layout! Learn more

10-Day Weather Forecast

Advertisements
Track Severe Weather on mobile